This is the latest recevied weather packets stored in our database for station/object OK1FPA-13. If no packets are shown the sender has not sent any weather packets the latest 10 day(s).
| Time | Temp. | Humidity | Pressure | Rain* | Wind** | Luminosity | Snow |
|---|---|---|---|---|---|---|---|
| 1777716269 | 22.78° C | 25% | 1022.9 hPa | - | - | - | - |
| 1777715669 | 22.22° C | 27% | 1023.1 hPa | - | - | - | - |
| 1777715069 | 21.67° C | 28% | 1023.3 hPa | - | - | - | - |
| 1777714469 | 21.67° C | 29% | 1023.4 hPa | - | - | - | - |
| 1777713870 | 21.67° C | 30% | 1023.6 hPa | - | - | - | - |
| 1777713269 | 21.11° C | 31% | 1023.7 hPa | - | - | - | - |
| 1777712670 | 21.11° C | 30% | 1023.8 hPa | - | - | - | - |
| 1777712070 | 21.11° C | 33% | 1023.9 hPa | - | - | - | - |
| 1777711470 | 20.56° C | 35% | 1024 hPa | - | - | - | - |
| 1777710870 | 20° C | 36% | 1024.1 hPa | - | - | - | - |
| 1777710269 | 19.44° C | 39% | 1024.1 hPa | - | - | - | - |
| 1777709670 | 18.89° C | 41% | 1024.2 hPa | - | - | - | - |
| 1777709069 | 17.78° C | 44% | 1024.4 hPa | - | - | - | - |
| 1777708470 | 17.78° C | 42% | 1024.4 hPa | - | - | - | - |
| 1777707870 | 17.22° C | 45% | 1024.6 hPa | - | - | - | - |
| 1777707269 | 16.11° C | 48% | 1024.6 hPa | - | - | - | - |
| 1777706670 | 15.56° C | 48% | 1024.6 hPa | - | - | - | - |
| 1777706069 | 15° C | 51% | 1024.7 hPa | - | - | - | - |
| 1777705470 | 14.44° C | 53% | 1024.7 hPa | - | - | - | - |
| 1777704869 | 12.78° C | 56% | 1024.7 hPa | - | - | - | - |
| 1777704269 | 12.22° C | 58% | 1024.7 hPa | - | - | - | - |
| 1777703670 | 11.67° C | 61% | 1024.8 hPa | - | - | - | - |
| 1777703069 | 11.11° C | 63% | 1024.8 hPa | - | - | - | - |
| 1777702470 | 10.56° C | 66% | 1024.8 hPa | - | - | - | - |
| 1777701869 | 9.44° C | 68% | 1024.9 hPa | - | - | - | - |
* Rain since midnight (hover to see other rain measurements)
** Current wind speed in m/s (hover to see current wind gust speed)